Date,TemperatureHighF,TemperatureAvgF,TemperatureLowF,DewpointHighF,DewpointAvgF,DewpointLowF,HumidityHigh,HumidityAvg,HumidityLow,PressureMaxIn,PressureMinIn,WindSpeedMaxMPH,WindSpeedAvgMPH,GustSpeedMaxMPH,PrecipitationSumIn
2013-1-1,48.1,44.4,40.1,41.0,37.7,32.0,93,78,54,30.04,29.90,6,1,0,0.14
2013-1-2,41.2,38.1,35.5,38.0,32.9,23.0,96,82,60,30.23,29.99,5,0,0,0.19
2013-1-3,38.7,34.4,29.6,28.0,25.3,21.0,91,70,55,30.26,30.18,2,0,0,0.00
2013-1-4,48.1,38.1,28.9,31.0,28.0,25.0,92,68,44,30.24,30.12,10,1,0,0.00
2013-1-5,46.1,38.5,30.5,36.0,29.1,23.0,86,69,52,30.39,30.20,5,1,0,0.00
2013-1-6,49.8,42.4,38.5,40.0,37.8,36.0,96,84,63,30.25,30.05,7,1,0,0.04
2013-1-7,52.1,41.8,31.8,39.0,33.5,30.0,96,74,47,30.46,30.13,2,0,0,0.00
2013-1-8,52.4,41.2,31.6,42.0,36.5,30.0,96,84,60,30.49,30.39,5,0,0,0.00
2013-1-9,62.6,52.0,39.8,53.0,46.7,38.0,95,82,68,30.41,30.25,10,1,0,0.00
2013-1-10,56.3,47.5,41.0,52.0,37.5,32.0,94,70,46,30.57,30.37,4,0,0,0.00
2013-1-11,53.6,46.1,37.0,53.0,44.3,36.0,97,93,85,30.51,30.09,5,0,0,0.02
2013-1-12,52.9,47.2,43.9,52.0,46.5,43.0,98,97,96,30.16,30.08,3,0,0,0.01
2013-1-13,57.2,49.6,44.2,57.0,49.3,44.0,99,99,98,30.14,30.03,7,1,0,0.01
2013-1-14,63.2,55.7,45.2,62.0,54.4,44.0,99,95,92,30.23,30.04,10,2,0,0.62
2013-1-15,44.6,43.0,41.4,44.0,42.3,41.0,97,97,93,30.29,30.12,4,1,0,0.28
2013-1-16,46.9,42.3,38.4,46.0,41.7,38.0,98,97,96,30.11,29.92,10,1,0,0.04
2013-1-17,45.4,41.5,33.5,45.0,40.8,33.0,98,97,93,30.14,29.98,4,1,0,0.03
2013-1-18,43.1,36.3,30.3,35.0,30.3,26.0,97,80,53,30.55,30.05,5,0,0,0.14
2013-1-19,50.7,42.4,31.6,36.0,31.8,29.0,90,68,51,30.49,30.08,12,6,0,0.05
2013-1-20,60.2,50.4,40.9,39.0,34.3,22.0,68,55,42,30.07,29.86,14,5,0,0.03
2013-1-21,50.9,42.4,32.9,42.0,32.5,21.0,91,68,46,30.09,29.78,6,1,0,0.01
2013-1-22,36.7,29.2,22.4,25.0,9.9,1.0,64,46,26,30.30,29.91,7,1,0,0.56
2013-1-23,34.4,26.1,17.9,16.0,8.1,4.0,62,47,30,30.38,30.13,5,1,0,0.01
2013-1-24,31.5,26.9,23.1,26.0,15.9,6.0,91,65,45,30.54,30.00,11,1,0,0.00
2013-1-25,28.9,24.5,19.6,24.0,15.7,8.0,92,70,52,30.53,30.10,11,2,0,0.00
2013-1-26,39.5,29.6,21.5,28.0,24.3,19.0,94,81,59,30.43,30.09,4,0,0,0.01
2013-1-27,38.6,32.8,28.5,28.0,24.5,22.0,87,72,57,30.62,30.44,4,1,0,0.05
2013-1-28,49.7,40.5,32.9,45.0,34.9,26.0,93,80,70,30.54,30.13,15,6,0,0.11
2013-1-29,60.6,52.3,47.3,53.0,47.8,45.0,93,85,71,30.16,30.05,11,2,0,0.00
2013-1-30,69.0,61.7,53.8,60.0,57.1,51.0,94,85,72,30.04,29.42,23,9,0,0.00
2013-1-31,63.9,50.4,37.6,62.0,35.3,19.0,93,59,36,29.97,29.24,19,5,0,0.44
2013-2-1,41.2,34.2,24.3,30.0,18.7,7.0,73,54,33,30.37,29.81,12,2,0,0.00
2013-2-2,38.6,29.9,20.7,24.0,14.6,10.0,71,54,41,30.40,30.00,10,2,0,0.00
2013-2-3,39.6,35.7,31.5,31.0,27.5,22.0,89,73,53,30.00,29.84,6,0,0,0.00
2013-2-4,42.5,34.7,28.0,32.0,22.7,16.0,81,62,51,30.15,29.95,10,2,0,0.00
2013-2-5,50.4,44.9,42.4,39.0,34.5,29.0,84,67,58,29.96,29.85,13,3,0,0.00
2013-2-6,48.8,41.0,31.5,39.0,34.5,30.0,96,78,62,30.36,29.93,5,1,0,0.00
2013-2-7,43.8,39.9,32.5,42.0,34.0,28.0,95,79,71,30.44,30.16,4,1,0,0.20
2013-2-8,47.4,43.1,40.9,45.0,40.6,30.0,97,91,64,30.16,29.68,7,2,0,1.54
2013-2-9,45.2,38.3,33.3,29.0,24.8,21.0,69,59,46,30.39,29.91,15,3,0,0.00
2013-2-10,43.2,36.2,28.5,39.0,26.5,20.0,86,69,51,30.52,30.32,6,1,0,0.00
2013-2-11,60.0,53.6,43.1,57.0,50.6,39.0,97,90,76,30.30,29.80,18,7,0,0.06
2013-2-12,60.6,52.0,44.0,50.0,37.5,31.0,80,60,33,30.02,29.82,5,1,0,0.00
2013-2-13,48.6,45.6,40.7,44.0,41.5,38.0,96,86,71,29.95,29.61,4,0,0,0.09
2013-2-14,48.1,41.4,37.1,39.0,36.4,34.0,95,83,62,30.08,29.76,4,1,0,0.00
2013-2-15,57.0,45.6,37.0,45.0,39.1,35.0,94,79,60,30.09,29.93,6,2,0,0.00
2013-2-16,43.4,37.4,33.2,38.0,34.7,30.0,95,90,81,30.00,29.79,7,0,0,0.33
2013-2-17,36.2,31.4,26.2,29.0,16.8,8.0,81,56,33,30.23,29.79,6,2,0,0.04
2013-2-18,42.9,33.2,20.9,31.0,17.6,8.0,76,54,31,30.42,30.23,7,1,0,0.03
2013-2-19,55.3,46.5,39.2,50.0,40.0,27.0,95,78,59,30.26,29.78,17,6,0,0.07
2013-2-20,47.0,39.0,30.8,41.0,27.7,19.0,91,65,43,30.16,29.87,5,1,0,0.00
2013-2-21,43.6,34.2,26.0,24.0,19.7,15.0,67,56,42,30.32,30.14,5,1,0,0.00
2013-2-22,38.8,35.5,32.5,37.0,29.3,21.0,95,79,61,30.38,30.17,4,0,0,0.06
2013-2-23,45.4,41.7,38.7,45.0,41.1,37.0,98,97,95,30.19,29.80,6,0,0,0.39
2013-2-24,56.2,45.1,36.2,47.0,40.7,25.0,98,86,62,30.09,29.76,5,1,0,0.00
2013-2-25,43.9,36.5,30.9,32.0,27.9,23.0,88,72,57,30.23,30.09,5,1,0,0.00
2013-2-26,53.5,42.9,31.9,53.0,40.7,30.0,98,92,84,30.21,29.55,13,2,0,0.94
2013-2-27,58.0,50.0,41.0,52.0,45.0,38.0,98,84,60,29.71,29.53,10,2,0,0.51
2013-2-28,47.6,43.4,40.8,41.0,37.0,30.0,94,78,63,29.75,29.63,8,1,0,0.00
2013-3-1,48.5,42.7,38.6,34.0,31.4,29.0,75,65,52,29.88,29.75,4,1,0,0.00
2013-3-2,42.0,38.0,33.9,30.0,26.8,22.0,71,65,58,29.89,29.81,5,1,0,0.00
2013-3-3,42.3,36.0,31.2,26.0,23.4,21.0,72,61,49,29.92,29.80,10,1,0,0.00
2013-3-4,47.7,37.7,30.3,27.0,21.8,18.0,67,54,39,30.05,29.92,8,1,0,0.00
2013-3-5,45.6,38.3,30.1,37.0,28.3,21.0,93,68,46,30.10,29.77,12,1,0,0.20
2013-3-6,45.9,42.2,38.7,45.0,40.9,37.0,96,95,93,29.77,29.28,20,5,0,1.05
2013-3-15,55.5,50.9,52.0,39.0,31.6,-99.9,62,54,46,29.85,29.82,10,-43,0,0.00
2013-3-16,57.4,51.4,43.8,55.0,45.0,38.0,96,79,58,29.86,29.61,4,1,0,0.43
2013-3-17,43.8,39.5,36.8,42.0,37.4,35.0,95,92,89,30.27,29.87,5,1,0,0.19
2013-3-18,45.1,39.0,34.2,44.0,37.9,33.0,97,96,94,30.28,29.88,5,1,0,0.53
2013-3-19,59.1,47.2,38.6,47.0,36.7,13.0,97,73,21,29.93,29.74,7,1,0,0.03
2013-3-20,54.4,47.1,35.9,37.0,21.3,11.0,70,38,22,30.05,29.79,12,2,0,0.00
2013-3-21,46.0,38.6,32.3,36.0,25.7,15.0,76,61,45,29.92,29.70,12,2,0,0.00
2013-3-22,49.4,36.8,28.4,34.0,20.3,14.0,91,53,35,30.00,29.90,10,1,0,0.00
2013-3-23,50.4,41.4,32.3,39.0,32.0,26.0,92,71,40,30.05,29.91,6,1,0,0.00
2013-3-24,42.4,38.9,33.0,37.0,31.8,27.0,95,77,59,29.98,29.61,8,2,0,0.17
2013-3-25,42.2,37.7,33.9,37.0,35.5,33.0,96,92,79,29.71,29.49,7,1,0,0.46
2013-3-26,53.7,42.1,34.4,39.0,34.2,29.0,92,75,51,29.99,29.71,5,1,0,0.00
2013-3-27,54.4,44.5,37.7,34.0,30.0,27.0,72,58,39,30.14,29.99,9,1,0,0.00
2013-3-28,54.3,44.3,35.4,34.0,30.0,26.0,73,58,43,30.22,30.10,18,1,0,0.00
2013-3-29,57.8,46.7,38.6,40.0,34.2,31.0,86,64,40,30.26,30.15,5,1,0,0.00
2013-3-30,61.9,48.9,38.0,42.0,36.4,30.0,87,65,34,30.21,30.12,8,1,0,0.00
2013-3-31,59.1,51.7,45.9,55.0,48.1,40.0,96,87,69,30.14,29.76,13,1,0,0.32
2013-4-1,70.9,57.0,46.9,54.0,45.9,33.0,97,70,38,29.96,29.71,7,1,0,0.00
2013-4-2,54.4,45.2,35.6,38.0,29.4,19.0,84,56,25,30.16,29.97,13,1,0,0.00
2013-4-3,55.1,45.1,34.5,33.0,27.0,20.0,79,51,27,30.37,30.17,9,1,0,0.00
2013-4-4,46.8,41.6,34.8,38.0,28.1,22.0,93,60,40,30.42,30.06,6,1,0,0.10
2013-4-5,61.9,47.0,40.2,47.0,42.1,34.0,96,85,35,30.05,29.84,6,1,0,0.47
2013-4-6,52.2,46.9,42.9,40.0,33.3,29.0,83,60,46,30.33,30.01,6,1,0,0.00
2013-4-7,63.9,54.2,41.4,52.0,45.2,39.0,93,73,51,30.32,30.05,13,3,0,0.00
2013-4-8,75.1,64.9,57.0,57.0,54.1,49.0,83,69,50,30.11,29.99,15,5,0,0.00
2013-4-9,80.6,69.5,63.3,61.0,58.3,56.0,79,68,48,30.11,29.98,12,3,0,0.00
2013-4-10,84.8,76.1,66.9,63.0,60.8,58.0,76,60,43,30.01,29.84,17,6,0,0.00
2013-4-11,80.8,72.9,64.3,64.0,61.5,59.0,86,68,52,29.91,29.77,17,6,0,0.00
2013-4-12,78.2,69.6,66.1,69.0,65.2,63.0,97,86,67,29.78,29.56,17,6,0,0.33
2013-4-13,67.2,57.5,51.9,66.0,49.7,43.0,96,76,56,29.95,29.63,12,2,0,0.20
2013-4-14,67.5,59.5,51.9,53.0,48.6,40.0,94,69,41,30.13,29.94,11,1,0,0.01
2013-4-15,61.4,58.4,56.4,55.0,53.2,47.0,90,83,65,30.27,30.11,6,1,0,0.00
2013-4-16,69.1,61.1,52.2,60.0,56.5,51.0,96,85,73,30.32,30.20,9,2,0,0.00
2013-4-17,76.9,66.1,58.9,66.0,60.7,57.0,93,83,66,30.21,30.14,12,3,0,0.00
2013-4-18,74.6,65.1,59.2,64.0,60.5,57.0,94,85,69,30.23,30.05,9,2,0,0.00
2013-4-19,80.0,70.8,63.1,68.0,65.1,61.0,95,83,62,30.05,29.70,24,8,0,0.07
2013-4-20,67.4,55.3,49.2,66.0,46.7,37.0,95,74,48,30.28,29.75,15,2,0,0.40
2013-4-21,53.9,50.0,45.4,45.0,36.6,33.0,90,61,47,30.57,30.29,5,1,0,0.06
2013-4-22,57.6,50.2,43.9,49.0,43.5,35.0,87,78,70,30.55,30.32,7,2,0,0.00
2013-4-23,57.1,51.4,46.8,50.0,47.3,45.0,94,86,76,30.32,30.13,5,1,0,0.00
2013-4-24,62.4,51.7,46.3,56.0,49.8,45.0,97,93,78,30.14,30.07,13,4,0,0.00
2013-4-27,64.7,60.5,55.8,52.0,44.3,-99.9,80,58,37,30.41,30.30,5,-15,0,0.00
2013-4-28,65.4,58.4,47.7,55.0,48.4,43.0,90,71,48,30.31,30.15,4,0,0,0.02
2013-4-29,59.1,57.9,56.4,58.0,57.0,55.0,98,96,89,30.16,30.01,7,1,0,0.53
2013-4-30,61.1,58.1,56.8,60.0,57.5,56.0,99,98,94,30.21,30.04,3,0,0,0.08
2013-5-1,63.2,58.3,55.0,57.0,53.3,46.0,98,84,58,30.38,30.21,5,1,0,0.01
2013-5-2,65.6,57.9,52.7,56.0,52.5,48.0,94,83,66,30.41,30.30,5,0,0,0.00
2013-5-3,63.3,56.5,50.6,53.0,49.2,45.0,95,78,53,30.35,30.26,11,2,0,0.02
2013-5-4,63.5,54.7,50.0,54.0,48.9,46.0,94,81,63,30.29,30.17,7,1,0,0.00
2013-5-5,61.6,55.4,50.8,54.0,50.4,47.0,92,83,70,30.18,30.12,5,1,0,0.00
2013-5-6,67.5,60.9,55.0,63.0,58.6,53.0,96,92,83,30.13,30.00,7,1,0,0.00
2013-5-7,67.9,63.2,59.7,64.0,61.0,59.0,97,92,84,29.99,29.87,9,1,0,0.05
2013-5-8,68.7,61.4,55.0,62.0,58.7,54.0,98,91,66,30.01,29.93,7,1,0,0.16
2013-5-9,75.0,65.0,56.2,63.0,59.4,55.0,97,83,58,30.02,29.92,8,1,0,0.14
2013-5-10,81.8,72.0,62.7,67.0,63.0,59.0,90,74,52,30.02,29.90,12,2,0,0.09
2013-5-11,80.2,73.9,66.6,68.0,65.0,63.0,91,74,57,29.92,29.73,15,6,0,0.39
2013-5-12,71.5,64.2,56.9,66.0,54.2,39.0,96,72,49,30.02,29.73,10,0,0,0.06
2013-5-13,62.6,56.5,50.4,45.0,38.0,32.0,72,51,38,30.14,30.02,5,1,0,0.00
2013-5-14,63.2,56.7,46.7,52.0,40.4,32.0,74,56,35,30.22,30.08,9,1,0,0.00
2013-5-15,83.6,71.1,60.8,66.0,57.1,48.0,73,62,53,30.08,29.75,15,8,0,0.00
2013-5-16,87.1,77.3,68.7,67.0,63.7,60.0,79,64,43,29.91,29.77,7,1,0,0.01
2013-5-17,79.6,70.7,64.3,65.0,59.0,48.0,91,69,33,30.14,29.91,5,0,0,0.00
2013-5-18,66.6,64.6,61.3,64.0,60.2,55.0,95,86,68,30.21,30.14,5,1,0,0.15
2013-5-19,74.6,69.6,65.6,70.0,67.4,64.0,98,92,85,30.18,30.09,6,1,0,0.02
2013-5-20,78.1,71.9,68.2,71.0,68.7,67.0,96,90,75,30.12,30.01,14,5,0,0.07
2013-5-21,80.1,73.8,69.4,72.0,69.6,68.0,95,87,74,30.02,29.91,12,5,0,0.01
2013-5-22,82.0,75.7,71.8,71.0,69.9,69.0,92,82,67,29.98,29.87,18,8,0,0.00
2013-5-23,75.8,72.2,66.8,72.0,69.2,65.0,95,90,83,29.95,29.75,13,5,0,0.24
2013-5-24,70.0,61.8,53.5,69.0,56.2,39.0,97,83,57,30.11,29.74,9,2,0,0.17
2013-5-25,66.2,56.5,44.1,46.0,40.9,37.0,75,57,39,30.19,30.08,12,2,0,0.00
2013-5-26,71.1,62.4,54.5,56.0,44.9,39.0,91,55,34,30.23,30.13,7,1,0,0.00
2013-5-27,73.1,64.4,51.9,61.0,55.7,47.0,93,75,47,30.27,30.17,7,0,0,0.00
2013-5-28,80.7,72.7,64.8,68.0,63.5,58.0,86,73,63,30.22,30.09,17,7,0,0.00
2013-5-29,84.9,77.3,69.6,69.0,67.3,65.0,85,72,56,30.16,30.09,13,7,0,0.00
2013-5-30,85.4,76.9,69.1,73.0,68.6,65.0,92,76,57,30.21,30.14,11,4,0,0.00
2013-5-31,85.1,77.4,71.0,73.0,70.6,68.0,93,80,61,30.20,30.07,9,3,0,0.00
2013-6-1,86.5,80.0,73.0,74.0,71.2,70.0,89,75,58,30.10,29.97,15,6,0,0.00
2013-6-2,84.8,79.2,73.0,71.0,68.9,67.0,83,71,58,29.99,29.87,16,9,0,0.00
2013-6-3,76.8,73.1,69.4,73.0,70.4,67.0,97,91,77,29.91,29.82,13,4,0,1.22
2013-6-4,73.8,69.0,61.7,69.0,58.2,50.0,97,71,45,30.12,29.91,7,0,0,0.00
2013-6-5,74.7,68.1,58.3,62.0,58.3,54.0,94,72,50,30.17,30.09,5,1,0,0.00
2013-6-6,75.4,71.1,66.6,69.0,65.3,59.0,89,82,72,30.09,29.87,7,1,0,0.00
2013-6-7,76.9,71.8,69.1,76.0,70.7,68.0,98,96,89,29.86,29.48,8,1,0,3.44
2013-6-8,76.0,70.9,65.7,72.0,68.6,64.0,98,92,78,30.09,29.72,7,1,0,0.11
2013-6-9,80.5,73.4,66.9,73.0,69.9,66.0,98,89,73,30.17,30.08,4,0,0,0.00
2013-6-10,80.2,75.1,71.8,75.0,73.2,70.0,98,93,83,30.09,29.86,14,5,0,0.58
2013-6-11,82.7,76.9,72.8,73.0,70.8,69.0,94,82,65,29.87,29.78,16,4,0,0.08
2013-6-12,88.0,79.4,69.2,76.0,71.0,66.0,91,76,60,29.89,29.79,7,1,0,0.00
2013-6-13,90.5,78.9,69.7,77.0,73.3,67.0,95,84,58,29.80,29.47,14,4,0,0.22
2013-6-14,71.7,68.0,63.1,67.0,60.5,58.0,92,77,63,29.95,29.59,8,1,0,0.00
2013-6-15,79.8,72.3,62.4,69.0,63.5,58.0,90,74,59,30.07,29.95,4,0,0,0.00
2013-6-16,84.8,77.4,68.4,73.0,69.0,64.0,96,76,63,30.04,29.91,11,5,0,0.00
2013-6-17,81.7,75.9,71.6,74.0,71.1,69.0,94,85,69,29.99,29.91,11,4,0,0.04
2013-6-18,78.2,73.1,67.6,75.0,70.9,66.0,95,92,80,29.94,29.75,14,4,0,0.10
2013-6-19,71.3,67.9,66.0,67.0,65.2,64.0,95,91,83,30.00,29.83,2,0,0,0.01
2013-6-21,71.2,63.5,70.0,64.0,47.4,-99.9,80,71,78,30.25,30.24,2,-100,0,0.00
2013-6-22,81.2,73.8,64.0,70.0,65.9,62.0,95,77,60,30.24,30.17,4,0,0,0.00
2013-6-23,83.9,78.4,73.1,77.0,73.1,70.0,94,84,71,30.19,30.10,14,5,0,0.00
2013-6-24,86.8,80.6,74.7,76.0,74.3,73.0,94,82,67,30.14,30.04,12,4,0,0.03
2013-6-25,88.6,81.8,75.1,78.0,75.1,73.0,93,81,63,30.07,29.92,8,3,0,0.00
2013-6-26,89.2,81.2,73.1,77.0,74.2,71.0,94,80,66,29.94,29.81,12,4,0,0.03
2013-6-27,85.8,77.8,71.1,76.0,72.4,69.0,95,84,62,29.86,29.66,17,7,0,0.12
2013-6-28,88.0,80.9,74.7,76.0,74.3,70.0,95,81,61,29.67,29.51,17,6,0,0.00
2013-6-29,82.9,77.5,72.2,76.0,73.0,70.0,94,86,75,29.72,29.55,12,4,0,0.19
2013-6-30,82.1,79.2,76.7,76.0,74.9,74.0,92,86,80,29.88,29.73,11,6,0,0.00
2013-7-1,81.0,77.4,72.8,76.0,74.7,71.0,98,91,85,30.03,29.87,14,5,0,0.59
2013-7-2,83.8,76.6,73.2,77.0,73.7,71.0,97,90,77,30.21,30.03,13,5,0,0.05
2013-7-3,84.3,78.9,73.8,79.0,75.6,73.0,97,89,77,30.26,30.18,11,4,0,0.02
2013-7-4,85.9,80.2,76.0,78.0,75.2,73.0,94,85,67,30.29,30.21,12,5,0,0.02
2013-7-5,86.9,81.1,75.4,78.0,75.2,73.0,94,82,66,30.27,30.16,9,4,0,0.02
2013-7-6,87.2,82.0,76.1,77.0,75.0,73.0,93,80,63,30.22,30.11,11,4,0,0.01
2013-7-7,87.3,82.2,76.4,77.0,75.1,73.0,88,79,67,30.14,30.02,11,5,0,0.01
2013-7-8,83.5,79.5,75.3,76.0,74.6,73.0,93,85,74,30.13,30.06,12,4,0,0.01
2013-7-9,86.7,80.6,75.2,78.0,75.5,72.0,94,85,71,30.12,30.02,14,4,0,0.01
2013-7-10,87.0,78.8,73.0,79.0,72.1,-99.9,96,84,72,30.06,29.90,11,-16,0,0.00
2013-7-11,79.8,76.9,75.3,76.0,74.4,73.0,96,92,87,29.94,29.88,12,3,0,0.02
2013-7-12,78.6,74.6,72.1,74.0,72.5,71.0,98,93,84,30.02,29.88,7,1,0,0.02
2013-7-13,83.7,77.6,70.2,79.0,74.5,69.0,99,90,78,30.26,30.01,9,1,0,0.66
2013-7-14,85.3,80.8,77.6,78.0,76.2,74.0,96,86,74,30.33,30.25,4,0,0,0.00
2013-7-15,86.9,80.6,73.2,80.0,76.6,72.0,98,87,75,30.32,30.19,6,1,0,0.00
2013-7-16,91.8,83.8,77.3,82.0,76.3,72.0,90,79,58,30.21,30.14,5,0,0,0.00
2013-7-17,93.4,84.3,75.5,82.0,77.0,73.0,95,79,56,30.19,30.09,3,0,0,0.00
2013-7-18,91.3,84.9,77.9,82.0,77.7,76.0,93,79,65,30.12,30.01,8,2,0,0.00
2013-7-19,90.5,85.1,78.8,81.0,78.4,76.0,92,80,70,30.04,29.91,12,6,0,0.00
2013-7-20,89.2,84.3,79.4,80.0,77.3,75.0,87,79,71,29.94,29.85,14,8,0,0.00
2013-7-21,86.5,80.0,72.3,79.0,75.5,71.0,97,86,75,29.96,29.86,11,3,0,0.01
2013-7-22,84.6,75.5,70.7,79.0,70.5,-99.9,98,89,80,29.93,29.79,6,-21,0,0.00
2013-7-23,87.2,81.4,77.0,79.0,76.1,75.0,94,84,70,29.80,29.65,12,3,0,0.00
2013-7-24,88.8,81.2,76.0,80.0,74.6,69.0,94,81,60,29.84,29.67,5,0,0,0.00
2013-7-25,79.2,73.5,71.2,73.0,69.2,67.0,95,86,79,29.99,29.82,4,0,0,0.00
2013-7-26,79.3,74.0,67.5,71.0,67.5,64.0,91,80,66,30.08,29.99,5,0,0,0.00
2013-7-27,82.4,76.7,70.1,70.0,68.7,66.0,92,77,65,30.07,29.95,9,2,0,0.00
2013-7-28,84.3,78.3,70.8,77.0,72.7,68.0,97,83,68,29.98,29.89,8,2,0,0.30
2013-7-29,81.1,75.2,69.7,74.0,68.2,64.0,96,80,58,30.15,29.96,7,0,0,0.02
2013-7-30,81.6,75.0,67.1,69.0,65.4,63.0,91,73,59,30.21,30.14,3,0,0,0.00
2013-7-31,81.5,75.9,67.9,71.0,68.0,64.0,95,77,57,30.15,30.04,5,1,0,0.00
2013-8-1,78.6,74.8,72.3,74.0,72.3,70.0,96,92,84,30.04,29.82,12,3,0,0.44
2013-8-2,86.0,77.3,68.7,75.0,70.6,64.0,96,81,52,29.98,29.85,6,1,0,0.00
2013-8-3,85.3,78.1,73.8,75.0,72.6,70.0,92,83,69,29.97,29.89,14,2,0,0.00
2013-8-4,82.5,76.0,70.6,70.0,64.8,60.0,94,70,48,30.01,29.87,8,1,0,0.00
2013-8-5,80.1,73.2,66.5,68.0,64.6,61.0,88,75,61,30.09,30.01,4,0,0,0.00
2013-8-6,74.7,70.8,65.8,69.0,66.7,64.0,96,87,73,30.10,30.01,8,2,0,1.43
2013-8-7,82.9,77.1,72.2,75.0,71.9,68.0,92,84,68,30.09,30.03,11,4,0,0.00
2013-8-8,83.8,79.3,75.5,78.0,74.9,73.0,92,86,75,30.07,30.00,9,2,0,0.00
2013-8-9,89.2,83.1,77.2,79.0,77.1,75.0,95,82,70,30.00,29.88,15,6,0,0.00
2013-8-10,86.4,80.1,74.0,78.0,74.6,72.0,94,83,66,30.08,29.95,7,1,0,0.03
2013-8-11,83.2,77.9,72.0,76.0,72.8,66.0,95,85,57,30.10,30.01,4,0,0,0.00
2013-8-12,84.7,80.2,74.7,78.0,76.2,73.0,97,87,75,30.02,29.91,4,0,0,0.00
2013-8-13,85.8,80.0,75.7,78.0,76.1,74.0,96,88,70,29.92,29.74,10,2,0,0.06
2013-8-14,77.4,70.9,65.2,76.0,60.9,54.0,96,72,54,30.08,29.76,8,1,0,0.00
2013-8-15,75.3,69.3,63.9,64.0,58.7,56.0,85,70,53,30.16,30.07,2,0,0,0.00
2013-8-16,77.1,70.1,60.7,65.0,60.6,56.0,93,73,51,30.18,30.10,4,0,0,0.00
2013-8-17,78.5,73.8,70.0,70.0,66.9,63.0,95,80,61,30.22,30.14,7,1,0,0.09
2013-8-18,71.6,69.6,66.7,70.0,68.0,65.0,97,95,87,30.19,30.11,6,1,0,0.56
2013-8-19,74.0,69.7,65.6,71.0,67.9,65.0,97,94,87,30.18,30.08,7,1,0,0.10
2013-8-20,79.3,74.4,68.6,74.0,70.9,68.0,98,89,78,30.18,30.09,4,0,0,0.00
2013-8-21,83.3,76.4,71.8,77.0,71.9,-99.9,98,88,75,30.21,30.09,5,-10,0,0.08
2013-8-22,85.6,77.9,72.7,77.0,70.2,-99.9,98,84,67,30.11,29.95,8,-10,0,0.00
2013-8-23,82.6,74.5,64.2,75.0,70.5,62.0,95,87,73,30.09,29.92,4,0,0,0.27
2013-8-24,80.8,72.3,63.2,70.0,65.7,62.0,98,81,61,30.32,30.08,7,0,0,0.28
2013-8-25,77.0,71.3,64.4,64.0,60.9,54.0,87,71,48,30.40,30.29,4,0,0,0.00
2013-8-26,80.7,71.3,60.2,66.0,62.6,59.0,97,76,55,30.31,30.05,9,2,0,0.00
2013-8-27,86.1,75.6,69.5,76.0,65.7,-99.9,88,75,63,30.05,29.89,7,-20,0,0.00
2013-8-28,82.8,77.5,74.3,76.0,73.9,72.0,95,88,74,29.92,29.83,6,1,0,0.05
2013-8-29,83.0,76.8,72.2,75.0,71.9,68.0,96,85,72,30.01,29.79,8,1,0,0.05
2013-8-30,80.6,74.8,68.1,73.0,69.8,67.0,96,84,71,30.05,29.94,6,1,0,0.00
2013-8-31,85.2,78.7,72.3,75.0,72.1,70.0,93,81,64,29.95,29.84,12,6,0,0.00
2013-9-1,87.9,80.0,75.1,79.0,74.7,73.0,94,84,67,29.87,29.77,13,5,0,0.01
2013-9-2,84.6,77.7,73.5,77.0,74.0,72.0,95,88,74,29.83,29.75,7,2,0,0.01
2013-9-3,86.4,79.0,72.1,76.0,72.7,69.0,94,82,64,29.92,29.75,4,0,0,0.00
2013-9-4,79.6,73.3,68.5,70.0,64.7,60.0,93,75,61,30.08,29.92,5,0,0,0.00
2013-9-5,85.3,76.6,68.6,72.0,67.1,61.0,94,75,44,30.07,29.98,7,1,0,0.00
2013-9-6,77.8,73.4,67.4,65.0,61.5,58.0,77,67,56,30.20,30.07,5,0,0,0.00
2013-9-7,77.1,69.9,60.5,66.0,61.4,56.0,93,75,52,30.13,29.96,7,1,0,0.00
2013-9-8,82.4,74.5,66.5,74.0,67.4,62.0,93,79,57,29.99,29.87,10,2,0,0.00
2013-9-9,79.2,75.4,71.1,73.0,69.4,65.0,93,81,75,30.16,29.99,3,0,0,0.00
2013-9-10,86.5,78.7,72.4,76.0,73.1,71.0,94,83,67,30.21,30.11,10,4,0,0.00
2013-9-11,88.6,80.0,74.2,76.0,72.8,70.0,92,79,60,30.17,30.04,10,3,0,0.00
2013-9-12,87.1,79.8,71.9,76.0,72.3,70.0,96,79,64,30.04,29.74,12,5,0,0.44
2013-9-13,80.5,73.4,66.6,71.0,65.1,57.0,98,77,53,29.88,29.68,5,0,0,0.01
2013-9-14,71.5,64.9,58.0,58.0,53.9,50.0,82,68,54,30.14,29.88,7,1,0,0.01
2013-9-15,73.8,66.0,55.9,64.0,57.0,52.0,95,74,52,30.24,30.12,8,1,0,0.00
2013-9-16,80.8,69.8,64.1,70.0,64.3,60.0,91,83,63,30.18,30.06,12,3,0,0.00
2013-9-17,68.5,63.9,60.1,60.0,55.1,50.0,85,74,59,30.37,30.18,8,1,0,0.00
2013-9-18,70.4,63.8,57.3,58.0,54.7,51.0,85,73,60,30.32,30.19,3,0,0,0.00
2013-9-19,71.9,65.8,56.8,62.0,56.9,54.0,97,74,54,30.20,30.10,4,0,0,0.00
2013-9-20,75.7,68.6,61.4,63.0,60.4,58.0,90,75,59,30.10,29.98,3,0,0,0.00
2013-9-21,79.3,70.7,61.1,69.0,65.2,60.0,97,83,66,29.99,29.72,15,2,0,0.19
2013-9-22,75.0,68.2,63.5,67.0,61.8,54.0,97,81,52,29.89,29.71,5,0,0,0.35
2013-9-23,67.1,61.7,54.1,55.0,51.0,49.0,82,68,57,30.07,29.89,7,0,0,0.00
2013-9-24,71.6,61.6,52.4,59.0,53.4,49.0,96,77,53,30.09,29.95,7,0,0,0.00
2013-9-25,73.0,63.2,55.3,61.0,56.2,51.0,97,80,56,29.96,29.87,2,0,0,0.00
2013-9-26,74.0,67.4,61.5,63.0,60.1,56.0,91,78,66,30.05,29.88,2,0,0,0.00
2013-9-27,73.3,67.4,61.5,61.0,58.0,54.0,89,73,58,30.20,30.05,5,0,0,0.00
2013-9-28,71.2,66.2,62.2,62.0,58.4,53.0,84,76,65,30.25,30.17,4,0,0,0.00
2013-9-29,72.9,66.3,59.2,65.0,60.1,53.0,93,81,66,30.17,30.04,4,0,0,0.00
2013-9-30,73.3,64.0,55.8,60.0,56.2,53.0,94,77,52,30.07,30.00,4,0,0,0.00
2013-10-1,79.5,68.7,57.1,65.0,61.0,55.0,95,78,56,30.09,29.98,9,1,0,0.00
2013-10-2,82.1,71.3,62.3,68.0,64.2,60.0,94,79,59,30.09,30.01,6,0,0,0.00
2013-10-3,80.5,71.7,62.3,71.0,66.0,61.0,97,83,62,30.11,30.05,6,0,0,0.00
2013-10-4,82.7,73.7,68.2,73.0,68.2,65.0,96,83,66,30.08,30.00,8,1,0,0.00
2013-10-5,86.1,74.8,66.6,72.0,68.6,65.0,96,82,61,30.08,30.01,1,0,0,0.00
2013-10-6,83.8,73.7,69.9,73.0,65.6,-99.9,93,80,61,30.05,29.96,10,-8,0,0.00
2013-10-7,82.2,73.0,62.4,73.0,69.1,56.0,97,88,68,30.01,29.82,13,3,0,0.58
2013-10-8,64.1,62.9,61.7,57.0,53.5,50.0,80,72,65,30.22,30.02,5,1,0,0.58
2013-10-9,64.1,62.0,60.4,61.0,58.4,54.0,97,88,70,30.21,30.05,11,1,0,1.16
2013-10-10,65.6,63.5,61.7,65.0,63.0,61.0,98,98,95,30.05,29.86,10,1,0,0.77
2013-10-11,67.1,65.1,62.0,67.0,64.6,62.0,98,98,97,29.91,29.82,6,0,0,0.28
2013-10-12,68.9,66.7,64.5,68.0,66.2,64.0,99,98,96,30.07,29.89,5,0,0,0.24
2013-10-13,67.9,66.5,64.1,67.0,65.0,62.0,98,95,90,30.25,30.06,6,0,0,0.04
2013-10-14,71.5,65.2,61.8,64.0,61.2,57.0,94,87,74,30.27,30.19,4,0,0,0.00
2013-10-15,66.4,63.1,58.7,63.0,60.1,55.0,94,90,81,30.20,30.06,5,0,0,0.00
2013-10-16,72.2,66.3,62.3,65.0,63.3,62.0,98,90,73,30.06,29.94,4,0,0,0.01
2013-10-17,74.7,68.5,63.5,68.0,65.0,62.0,97,89,73,29.94,29.79,10,2,0,0.01
2013-10-18,70.6,63.7,56.5,66.0,53.9,48.0,93,72,49,30.02,29.80,7,0,0,0.00
2013-10-19,65.8,63.7,60.0,64.0,59.1,54.0,95,85,73,30.00,29.80,6,1,0,0.03
2013-10-20,62.7,56.8,49.5,61.0,46.9,40.0,95,72,45,30.12,29.84,12,1,0,0.00
2013-10-21,66.7,56.9,45.4,54.0,49.3,43.0,96,77,52,30.17,30.00,7,0,0,0.00
2013-10-22,67.5,60.2,55.9,59.0,54.9,50.0,95,83,67,30.00,29.80,7,1,0,0.00
2013-10-23,61.0,55.8,49.4,57.0,48.6,40.0,96,77,63,29.91,29.65,6,1,0,0.00
2013-10-24,55.6,48.4,40.6,41.0,38.3,34.0,87,70,46,30.15,29.91,6,0,0,0.00
2013-10-25,57.0,46.8,37.5,38.0,35.4,32.0,86,66,42,30.33,30.14,5,0,0,0.00
2013-10-26,58.6,49.5,38.2,44.0,37.3,33.0,95,66,39,30.31,30.00,15,5,0,0.00
2013-10-27,64.4,54.6,45.3,48.0,41.9,38.0,92,64,41,30.14,29.98,8,1,0,0.00
2013-10-28,65.4,54.3,44.3,56.0,50.2,43.0,97,87,65,30.26,30.13,2,0,0,0.00
2013-10-29,67.5,57.3,49.9,55.0,51.1,46.0,97,82,47,30.35,30.26,3,0,0,0.00
2013-10-30,70.4,61.2,54.0,61.0,57.3,53.0,97,87,66,30.32,30.16,8,1,0,0.00
2013-10-31,69.3,64.1,56.4,65.0,60.5,55.0,97,88,78,30.19,29.90,13,3,0,0.00
2013-11-1,72.9,69.7,66.9,66.0,65.4,64.0,95,86,78,29.90,29.66,17,9,0,0.10
2013-11-2,71.9,63.9,56.4,66.0,56.1,45.0,97,77,47,29.88,29.62,9,1,0,0.00
2013-11-3,60.7,54.2,47.8,47.0,41.1,34.0,72,62,49,30.38,29.89,7,1,0,0.00
2013-11-4,51.4,46.6,41.2,43.0,37.3,33.0,86,70,59,30.59,30.39,6,0,0,0.00
2013-11-5,62.3,54.3,46.0,54.0,49.0,42.0,93,83,70,30.57,30.46,4,0,0,0.00
2013-11-6,67.6,59.5,51.7,59.0,55.0,49.0,95,85,66,30.46,30.11,2,0,0,0.00
2013-11-7,65.9,59.6,48.4,63.0,55.7,37.0,97,87,65,30.11,29.85,9,2,0,0.09
2013-11-8,55.4,47.6,40.3,38.0,32.4,29.0,77,57,39,30.33,30.06,5,1,0,0.00
2013-11-9,56.1,47.8,36.2,40.0,35.6,31.0,86,64,47,30.39,30.09,12,4,0,0.00
2013-11-10,68.7,55.9,47.8,44.0,37.3,31.0,66,51,30,30.23,29.95,9,2,0,0.00
2013-11-11,55.7,49.5,44.4,42.0,36.5,31.0,75,62,50,30.33,30.10,8,2,0,0.00
2013-11-12,55.9,45.4,37.5,43.0,31.6,19.0,82,59,44,30.38,29.98,9,2,0,0.00
2013-11-13,44.5,37.3,32.5,29.0,23.8,18.0,87,60,43,30.48,30.39,11,1,0,0.00
2013-11-14,57.9,44.5,32.7,37.0,29.4,25.0,87,58,33,30.44,30.30,12,3,0,0.00
2013-11-15,58.0,50.4,40.1,47.0,36.5,30.0,76,60,36,30.33,30.22,12,2,0,0.00
2013-11-16,59.7,54.3,50.3,55.0,51.4,47.0,96,89,77,30.31,30.21,1,0,0,0.03
2013-11-17,63.5,56.9,51.1,62.0,55.4,50.0,98,94,85,30.23,29.84,9,1,0,0.01
2013-11-18,72.6,63.5,53.4,66.0,50.4,32.0,96,67,31,29.89,29.74,14,2,0,0.03
2013-11-19,54.1,48.4,42.6,36.0,32.3,31.0,70,55,44,30.33,29.90,5,1,0,0.00
2013-11-20,49.2,45.0,40.6,41.0,35.7,30.0,83,70,62,30.53,30.33,6,1,0,0.00
2013-11-21,56.9,49.4,45.2,49.0,45.3,41.0,100,86,74,30.52,30.40,4,0,0,0.00
2013-11-22,68.5,57.7,45.4,59.0,53.9,44.0,97,88,71,30.40,30.00,11,3,0,0.00
2013-11-23,62.3,51.1,40.4,59.0,38.2,23.0,90,63,41,30.13,29.99,6,1,0,0.00
2013-11-24,39.7,31.9,28.0,25.0,11.6,7.0,60,44,33,30.54,30.13,11,2,0,0.02
2013-11-25,38.3,31.6,23.7,25.0,16.8,10.0,65,55,43,30.62,30.40,9,1,0,0.00
2013-11-26,59.2,45.2,37.3,58.0,38.5,22.0,98,79,53,30.41,29.60,15,2,0,0.02
2013-11-27,63.9,44.2,34.5,63.0,41.4,24.0,98,90,63,30.07,29.48,9,2,0,0.01
2013-11-28,42.2,34.2,30.0,27.0,21.6,17.0,85,61,44,30.52,30.07,8,1,0,0.00
2013-11-29,47.3,37.6,30.0,31.0,28.1,26.0,89,70,47,30.69,30.49,7,1,0,0.00
2013-11-30,45.0,39.0,35.4,36.0,31.9,28.0,90,76,68,30.67,30.37,4,0,0,0.00
2013-12-1,49.3,38.5,31.5,41.0,35.2,30.0,97,88,64,30.36,30.04,3,0,0,0.00
2013-12-2,54.6,41.1,31.7,47.0,38.6,31.0,98,91,67,30.03,29.86,3,0,0,0.00
2013-12-3,56.7,44.6,37.0,46.0,40.6,36.0,98,87,62,30.03,29.88,2,0,0,0.01
2013-12-4,56.7,50.0,43.4,54.0,48.4,42.0,97,94,88,30.11,30.03,1,0,0,0.07
2013-12-5,62.2,56.6,48.6,61.0,55.6,48.0,98,96,92,30.13,30.01,10,2,0,0.01
2013-12-6,72.1,58.5,47.0,65.0,55.6,46.0,96,90,75,30.09,29.96,16,4,0,0.01
2013-12-7,46.7,41.8,36.6,45.0,38.0,31.0,96,87,71,30.52,30.08,8,0,0,0.40
2013-12-8,40.2,36.8,34.4,39.0,34.1,30.0,97,90,76,30.55,30.26,6,1,0,0.73
2013-12-9,43.6,39.1,34.9,43.0,38.3,34.0,97,97,96,30.25,30.06,7,1,0,0.38
2013-12-10,41.2,38.1,32.7,40.0,36.9,32.0,97,95,91,30.27,29.95,4,0,0,0.26
2013-12-11,44.8,36.2,28.8,33.0,28.8,25.0,95,75,49,30.45,30.26,6,1,0,0.01
2013-12-12,38.6,32.7,27.1,31.0,20.7,-99.9,88,67,45,30.42,30.25,2,-24,0,0.00
2013-12-13,47.6,36.3,29.7,33.0,24.2,19.0,89,64,39,30.35,30.25,7,1,0,0.00
2013-12-14,54.2,44.3,36.2,54.0,40.7,32.0,98,87,75,30.33,29.67,7,0,0,1.09
2013-12-15,53.3,43.7,33.8,50.0,40.6,31.0,97,89,66,29.99,29.65,4,0,0,0.06
2013-12-16,44.9,38.9,32.5,38.0,32.8,29.0,92,79,62,30.20,29.98,5,0,0,0.06
2013-12-17,56.8,44.9,40.1,44.0,40.1,37.0,95,84,57,30.16,29.91,10,1,0,0.35
2013-12-18,46.7,38.8,33.4,40.0,32.6,27.0,96,80,51,30.27,29.95,4,0,0,0.01
2013-12-19,58.4,47.1,33.7,35.0,31.7,28.0,84,57,38,30.26,30.16,19,7,0,0.01
2013-12-20,62.3,55.7,49.1,54.0,46.2,33.0,83,71,51,30.21,30.09,16,7,0,0.00
2013-12-21,67.6,61.5,54.1,63.0,54.8,49.0,90,79,69,30.12,30.01,15,7,0,0.00
2013-12-22,72.6,65.4,59.7,67.0,62.2,57.0,96,89,81,30.10,29.97,28,9,0,0.14
2013-12-23,66.9,59.1,43.7,65.0,57.6,42.0,97,94,89,30.18,29.96,14,4,0,0.63
2013-12-24,45.1,39.6,29.5,41.0,29.6,14.0,93,68,49,30.46,30.15,5,1,0,0.65
2013-12-25,34.9,30.0,24.6,27.0,20.0,13.0,86,67,54,30.58,30.41,5,0,0,0.00
2013-12-26,51.1,35.5,26.7,33.0,27.4,24.0,94,75,40,30.40,30.22,13,1,0,0.00
2013-12-27,46.5,37.6,28.9,39.0,32.0,28.0,97,81,54,30.45,30.35,4,0,0,0.00
2013-12-28,57.6,45.7,36.6,35.0,32.4,30.0,78,62,39,30.38,30.15,12,2,0,0.00
2013-12-29,61.0,50.2,43.6,60.0,46.9,34.0,98,89,55,30.16,29.53,14,2,0,0.47
2013-12-30,52.2,43.7,38.5,45.0,39.8,33.0,97,86,74,30.17,29.86,5,0,0,0.01
2013-12-31,50.2,39.8,33.8,35.0,30.3,27.0,82,69,48,30.36,30.15,11,1,0,0.01
2014-1-1,49.9,39.2,31.6,40.0,32.9,25.0,96,79,64,30.44,30.16,5,0,0,0.38
2014-1-2,45.1,39.6,34.2,40.0,37.1,33.0,96,91,76,30.16,29.54,4,0,0,0.24